Hauptseite
METAR-TAF:

METAR-TAF

Flughäfen :

Flughafen Split

Split, Kroatien

Breite: 43-32N, Länge: 016-18E, Höhe: 19 m

Beobachtung

Neuester Wetterbericht von vor 33 Minuten, um 06:30 UTC
Windstille
Temperatur 3°C
Luftfeuchtigkeit 93%
Luftdruck 1025 hPa
Sichtweite 10 km oder mehr
keine Wolken unter 1500 m und keine Kumulonimbus oder Gewitterwolken

METAR: LDSP 180630Z 00000KT CAVOK 03/02 Q1025 NOSIG

Zeit: 08:03 (07:03 UTC)

Prognose

Neuester Wetterbericht von vor 1 Stunde und 38 Minuten, um 05:25 UTC
Gültige Prognose vom 18 um 06 UTC bis 19 um 06 UTC
Wind 2 kt aus unterschiedlichen Richtungen
Sichtweite 10 km oder mehr
keine Wolken unter 1500 m und keine Kumulonimbus oder Gewitterwolken
Wahrscheinlichkeit 30% :
Zeitweise
vom 18 um 12 UTC bis 18 um 16 UTC
Wind 7 kt aus Südwest

TAF: LDSP 180525Z 1806/1906 VRB02KT CAVOK TX14/1812Z TN03/1806Z PROB30 TEMPO 1812/1816 23007KT

Wetterbeobachtungen und Prognosen von mehr als 4000 Flughäfen (METAR und TAF Bericht).

Die verfügbaren Stationen werden durch gelbe und rote Markierungen auf der Karte dargestellt.

Führen Sie die Maus auf sie, um den Namen der Station zu sehen.

Darauf klicken, um die Beobachtung von Wetterbeobachtungen und Prognosen zu sehen.

Um die Karte zu ändern : klicken Sie auf den grünen Tasten mit einem schwarzen Kreuz Zum Vergrößern, auf den grünen Button mit einem Gedankenstrich zu verkleinern, oder auf die grünen Pfeile für benachbarte Karten.


METAR-TAF: